sensor_id;sensor_type;location;lat;lon;timestamp;P1;durP1;ratioP1;P2;durP2;ratioP2
56670;SDS011;42545;50.054;8.306;2023-09-30T00:01:42;1.80;;;1.40;;
56670;SDS011;42545;50.054;8.306;2023-09-30T00:04:09;2.20;;;1.40;;
56670;SDS011;42545;50.054;8.306;2023-09-30T00:06:35;3.03;;;1.30;;
56670;SDS011;42545;50.054;8.306;2023-09-30T00:09:04;2.15;;;1.30;;
56670;SDS011;42545;50.054;8.306;2023-09-30T00:11:30;2.42;;;1.30;;
56670;SDS011;42545;50.054;8.306;2023-09-30T00:13:57;1.85;;;1.30;;
56670;SDS011;42545;50.054;8.306;2023-09-30T00:16:23;1.88;;;1.20;;
56670;SDS011;42545;50.054;8.306;2023-09-30T00:18:59;2.47;;;1.45;;
56670;SDS011;42545;50.054;8.306;2023-09-30T00:21:28;2.13;;;1.20;;
56670;SDS011;42545;50.054;8.306;2023-09-30T00:23:55;3.58;;;1.65;;
56670;SDS011;42545;50.054;8.306;2023-09-30T00:26:23;3.70;;;1.50;;
56670;SDS011;42545;50.054;8.306;2023-09-30T00:28:49;6.70;;;2.97;;
56670;SDS011;42545;50.054;8.306;2023-09-30T00:31:16;5.90;;;2.08;;
56670;SDS011;42545;50.054;8.306;2023-09-30T00:33:42;3.20;;;1.70;;
56670;SDS011;42545;50.054;8.306;2023-09-30T00:36:09;2.28;;;1.60;;
56670;SDS011;42545;50.054;8.306;2023-09-30T00:38:37;2.60;;;1.60;;
56670;SDS011;42545;50.054;8.306;2023-09-30T00:41:03;2.42;;;1.40;;
56670;SDS011;42545;50.054;8.306;2023-09-30T00:43:32;2.20;;;1.60;;
56670;SDS011;42545;50.054;8.306;2023-09-30T00:46:01;3.38;;;1.70;;
56670;SDS011;42545;50.054;8.306;2023-09-30T00:48:32;2.42;;;1.70;;
56670;SDS011;42545;50.054;8.306;2023-09-30T00:50:59;2.80;;;1.55;;
56670;SDS011;42545;50.054;8.306;2023-09-30T00:53:26;4.78;;;2.28;;
56670;SDS011;42545;50.054;8.306;2023-09-30T00:55:53;2.08;;;1.50;;
56670;SDS011;42545;50.054;8.306;2023-09-30T00:58:22;1.98;;;1.25;;
56670;SDS011;42545;50.054;8.306;2023-09-30T01:03:21;2.27;;;1.60;;
56670;SDS011;42545;50.054;8.306;2023-09-30T01:05:49;3.97;;;1.70;;
56670;SDS011;42545;50.054;8.306;2023-09-30T01:08:15;1.77;;;1.50;;
56670;SDS011;42545;50.054;8.306;2023-09-30T01:10:43;6.03;;;1.90;;
56670;SDS011;42545;50.054;8.306;2023-09-30T01:13:10;2.75;;;1.88;;
56670;SDS011;42545;50.054;8.306;2023-09-30T01:15:36;3.88;;;1.88;;
56670;SDS011;42545;50.054;8.306;2023-09-30T01:18:04;2.72;;;1.77;;
56670;SDS011;42545;50.054;8.306;2023-09-30T01:20:31;5.68;;;2.70;;
56670;SDS011;42545;50.054;8.306;2023-09-30T01:23:00;5.68;;;2.38;;
56670;SDS011;42545;50.054;8.306;2023-09-30T01:27:55;3.05;;;1.88;;
56670;SDS011;42545;50.054;8.306;2023-09-30T01:30:22;4.65;;;2.20;;
56670;SDS011;42545;50.054;8.306;2023-09-30T01:32:49;5.65;;;2.15;;
56670;SDS011;42545;50.054;8.306;2023-09-30T01:35:15;4.57;;;2.17;;
56670;SDS011;42545;50.054;8.306;2023-09-30T01:37:42;3.20;;;2.00;;
56670;SDS011;42545;50.054;8.306;2023-09-30T01:40:10;3.35;;;2.03;;
56670;SDS011;42545;50.054;8.306;2023-09-30T01:42:37;2.65;;;1.60;;
56670;SDS011;42545;50.054;8.306;2023-09-30T01:45:04;3.25;;;2.00;;
56670;SDS011;42545;50.054;8.306;2023-09-30T01:47:31;5.40;;;2.22;;
56670;SDS011;42545;50.054;8.306;2023-09-30T01:49:58;4.70;;;1.90;;
56670;SDS011;42545;50.054;8.306;2023-09-30T01:52:25;3.90;;;2.00;;
56670;SDS011;42545;50.054;8.306;2023-09-30T01:54:52;3.67;;;1.80;;
56670;SDS011;42545;50.054;8.306;2023-09-30T01:57:20;4.00;;;1.90;;
56670;SDS011;42545;50.054;8.306;2023-09-30T01:59:47;2.90;;;1.67;;
56670;SDS011;42545;50.054;8.306;2023-09-30T02:02:13;2.00;;;1.50;;
56670;SDS011;42545;50.054;8.306;2023-09-30T02:04:40;2.42;;;1.38;;
56670;SDS011;42545;50.054;8.306;2023-09-30T02:07:07;2.10;;;1.50;;
56670;SDS011;42545;50.054;8.306;2023-09-30T02:09:34;2.30;;;1.30;;
56670;SDS011;42545;50.054;8.306;2023-09-30T02:12:01;1.70;;;1.17;;
56670;SDS011;42545;50.054;8.306;2023-09-30T02:14:29;1.48;;;1.10;;
56670;SDS011;42545;50.054;8.306;2023-09-30T02:16:56;2.10;;;1.30;;
56670;SDS011;42545;50.054;8.306;2023-09-30T02:19:22;2.17;;;1.20;;
56670;SDS011;42545;50.054;8.306;2023-09-30T02:21:49;1.20;;;0.93;;
56670;SDS011;42545;50.054;8.306;2023-09-30T02:24:15;1.58;;;1.15;;
56670;SDS011;42545;50.054;8.306;2023-09-30T02:26:42;1.10;;;1.00;;
56670;SDS011;42545;50.054;8.306;2023-09-30T02:29:08;2.03;;;1.33;;
56670;SDS011;42545;50.054;8.306;2023-09-30T02:31:36;1.27;;;0.95;;
56670;SDS011;42545;50.054;8.306;2023-09-30T02:34:03;1.55;;;1.23;;
56670;SDS011;42545;50.054;8.306;2023-09-30T02:36:29;1.42;;;1.00;;
56670;SDS011;42545;50.054;8.306;2023-09-30T02:38:56;1.15;;;0.80;;
56670;SDS011;42545;50.054;8.306;2023-09-30T02:41:23;2.20;;;1.00;;
56670;SDS011;42545;50.054;8.306;2023-09-30T02:43:49;1.10;;;0.73;;
56670;SDS011;42545;50.054;8.306;2023-09-30T02:46:16;1.25;;;0.90;;
56670;SDS011;42545;50.054;8.306;2023-09-30T02:48:44;1.23;;;0.80;;
56670;SDS011;42545;50.054;8.306;2023-09-30T02:51:10;0.80;;;0.80;;
56670;SDS011;42545;50.054;8.306;2023-09-30T02:53:37;1.10;;;0.77;;
56670;SDS011;42545;50.054;8.306;2023-09-30T02:56:04;0.70;;;0.68;;
56670;SDS011;42545;50.054;8.306;2023-09-30T02:58:31;1.05;;;0.85;;
56670;SDS011;42545;50.054;8.306;2023-09-30T03:00:59;1.25;;;0.70;;
56670;SDS011;42545;50.054;8.306;2023-09-30T03:03:25;0.90;;;0.85;;
56670;SDS011;42545;50.054;8.306;2023-09-30T03:05:53;1.00;;;0.70;;
56670;SDS011;42545;50.054;8.306;2023-09-30T03:08:20;0.70;;;0.60;;
56670;SDS011;42545;50.054;8.306;2023-09-30T03:10:49;1.02;;;0.80;;
56670;SDS011;42545;50.054;8.306;2023-09-30T03:13:15;0.60;;;0.55;;
56670;SDS011;42545;50.054;8.306;2023-09-30T03:15:43;0.75;;;0.68;;
56670;SDS011;42545;50.054;8.306;2023-09-30T03:18:10;1.08;;;0.80;;
56670;SDS011;42545;50.054;8.306;2023-09-30T03:20:37;0.90;;;0.60;;
56670;SDS011;42545;50.054;8.306;2023-09-30T03:23:07;0.75;;;0.60;;
56670;SDS011;42545;50.054;8.306;2023-09-30T03:25:33;0.85;;;0.65;;
56670;SDS011;42545;50.054;8.306;2023-09-30T03:28:00;1.00;;;0.70;;
56670;SDS011;42545;50.054;8.306;2023-09-30T03:30:27;0.70;;;0.63;;
56670;SDS011;42545;50.054;8.306;2023-09-30T03:32:54;0.70;;;0.60;;
56670;SDS011;42545;50.054;8.306;2023-09-30T03:35:21;0.60;;;0.60;;
56670;SDS011;42545;50.054;8.306;2023-09-30T03:37:49;0.63;;;0.60;;
56670;SDS011;42545;50.054;8.306;2023-09-30T03:40:16;0.93;;;0.68;;
56670;SDS011;42545;50.054;8.306;2023-09-30T03:42:45;0.60;;;0.60;;
56670;SDS011;42545;50.054;8.306;2023-09-30T03:45:14;0.93;;;0.80;;
56670;SDS011;42545;50.054;8.306;2023-09-30T03:47:43;1.00;;;0.73;;
56670;SDS011;42545;50.054;8.306;2023-09-30T03:50:10;1.02;;;0.70;;
56670;SDS011;42545;50.054;8.306;2023-09-30T03:52:39;0.82;;;0.80;;
56670;SDS011;42545;50.054;8.306;2023-09-30T03:55:09;0.70;;;0.70;;
56670;SDS011;42545;50.054;8.306;2023-09-30T03:57:38;0.95;;;0.80;;
56670;SDS011;42545;50.054;8.306;2023-09-30T04:00:05;0.80;;;0.73;;
56670;SDS011;42545;50.054;8.306;2023-09-30T04:02:36;1.00;;;0.80;;
56670;SDS011;42545;50.054;8.306;2023-09-30T04:05:03;0.77;;;0.77;;
56670;SDS011;42545;50.054;8.306;2023-09-30T04:07:30;0.70;;;0.70;;
56670;SDS011;42545;50.054;8.306;2023-09-30T04:09:57;0.60;;;0.60;;
56670;SDS011;42545;50.054;8.306;2023-09-30T04:12:26;0.50;;;0.50;;
56670;SDS011;42545;50.054;8.306;2023-09-30T04:14:55;0.80;;;0.80;;
56670;SDS011;42545;50.054;8.306;2023-09-30T04:17:22;0.98;;;0.80;;
56670;SDS011;42545;50.054;8.306;2023-09-30T04:19:48;0.98;;;0.80;;
56670;SDS011;42545;50.054;8.306;2023-09-30T04:22:16;1.00;;;0.70;;
56670;SDS011;42545;50.054;8.306;2023-09-30T04:24:43;1.48;;;1.00;;
56670;SDS011;42545;50.054;8.306;2023-09-30T04:27:10;1.10;;;0.90;;
56670;SDS011;42545;50.054;8.306;2023-09-30T04:29:37;2.17;;;1.00;;
56670;SDS011;42545;50.054;8.306;2023-09-30T04:32:05;2.45;;;1.20;;
56670;SDS011;42545;50.054;8.306;2023-09-30T04:34:32;1.67;;;1.20;;
56670;SDS011;42545;50.054;8.306;2023-09-30T04:36:59;1.88;;;1.35;;
56670;SDS011;42545;50.054;8.306;2023-09-30T04:39:25;2.40;;;1.65;;
56670;SDS011;42545;50.054;8.306;2023-09-30T04:41:52;2.72;;;1.23;;
56670;SDS011;42545;50.054;8.306;2023-09-30T04:44:19;2.15;;;1.42;;
56670;SDS011;42545;50.054;8.306;2023-09-30T04:46:46;1.70;;;1.30;;
56670;SDS011;42545;50.054;8.306;2023-09-30T04:49:15;1.63;;;1.30;;
56670;SDS011;42545;50.054;8.306;2023-09-30T04:51:42;2.47;;;1.60;;
56670;SDS011;42545;50.054;8.306;2023-09-30T04:54:09;2.65;;;1.77;;
56670;SDS011;42545;50.054;8.306;2023-09-30T04:56:36;2.28;;;1.55;;
56670;SDS011;42545;50.054;8.306;2023-09-30T04:59:05;2.60;;;1.58;;
56670;SDS011;42545;50.054;8.306;2023-09-30T05:01:31;2.53;;;1.40;;
56670;SDS011;42545;50.054;8.306;2023-09-30T05:03:58;1.98;;;1.40;;
56670;SDS011;42545;50.054;8.306;2023-09-30T05:06:26;2.08;;;1.42;;
56670;SDS011;42545;50.054;8.306;2023-09-30T05:08:53;2.05;;;1.20;;
56670;SDS011;42545;50.054;8.306;2023-09-30T05:11:20;2.80;;;1.77;;
56670;SDS011;42545;50.054;8.306;2023-09-30T05:13:47;2.33;;;1.60;;
56670;SDS011;42545;50.054;8.306;2023-09-30T05:16:13;2.13;;;1.60;;
56670;SDS011;42545;50.054;8.306;2023-09-30T05:18:41;1.98;;;1.40;;
56670;SDS011;42545;50.054;8.306;2023-09-30T05:21:08;1.83;;;1.20;;
56670;SDS011;42545;50.054;8.306;2023-09-30T05:23:36;1.50;;;1.30;;
56670;SDS011;42545;50.054;8.306;2023-09-30T05:26:03;1.77;;;1.30;;
56670;SDS011;42545;50.054;8.306;2023-09-30T05:28:30;1.75;;;1.50;;
56670;SDS011;42545;50.054;8.306;2023-09-30T05:30:56;1.77;;;1.15;;
56670;SDS011;42545;50.054;8.306;2023-09-30T05:33:23;1.95;;;1.20;;
56670;SDS011;42545;50.054;8.306;2023-09-30T05:35:50;1.48;;;1.38;;
56670;SDS011;42545;50.054;8.306;2023-09-30T05:38:17;2.08;;;1.40;;
56670;SDS011;42545;50.054;8.306;2023-09-30T05:40:46;1.48;;;1.23;;
56670;SDS011;42545;50.054;8.306;2023-09-30T05:43:14;1.92;;;1.25;;
56670;SDS011;42545;50.054;8.306;2023-09-30T05:45:41;1.40;;;1.10;;
56670;SDS011;42545;50.054;8.306;2023-09-30T05:48:14;1.10;;;1.00;;
56670;SDS011;42545;50.054;8.306;2023-09-30T05:50:41;1.63;;;1.10;;
56670;SDS011;42545;50.054;8.306;2023-09-30T05:53:08;1.73;;;1.20;;
56670;SDS011;42545;50.054;8.306;2023-09-30T05:55:35;1.70;;;1.30;;
56670;SDS011;42545;50.054;8.306;2023-09-30T05:58:04;1.80;;;1.40;;
56670;SDS011;42545;50.054;8.306;2023-09-30T06:00:31;2.00;;;1.63;;
56670;SDS011;42545;50.054;8.306;2023-09-30T06:03:00;2.35;;;1.67;;
56670;SDS011;42545;50.054;8.306;2023-09-30T06:05:29;3.80;;;2.22;;
56670;SDS011;42545;50.054;8.306;2023-09-30T06:07:57;3.72;;;2.33;;
56670;SDS011;42545;50.054;8.306;2023-09-30T06:10:23;2.90;;;1.95;;
56670;SDS011;42545;50.054;8.306;2023-09-30T06:12:51;4.25;;;2.53;;
56670;SDS011;42545;50.054;8.306;2023-09-30T06:15:21;3.78;;;2.65;;
56670;SDS011;42545;50.054;8.306;2023-09-30T06:17:51;3.85;;;2.55;;
56670;SDS011;42545;50.054;8.306;2023-09-30T06:20:18;4.35;;;2.78;;
56670;SDS011;42545;50.054;8.306;2023-09-30T06:22:47;4.43;;;2.60;;
56670;SDS011;42545;50.054;8.306;2023-09-30T06:25:14;4.13;;;3.03;;
56670;SDS011;42545;50.054;8.306;2023-09-30T06:27:42;4.95;;;3.33;;
56670;SDS011;42545;50.054;8.306;2023-09-30T06:30:09;6.00;;;3.60;;
56670;SDS011;42545;50.054;8.306;2023-09-30T06:32:38;6.28;;;3.50;;
56670;SDS011;42545;50.054;8.306;2023-09-30T06:35:06;6.10;;;3.67;;
56670;SDS011;42545;50.054;8.306;2023-09-30T06:37:35;6.32;;;4.00;;
56670;SDS011;42545;50.054;8.306;2023-09-30T06:40:02;7.43;;;4.18;;
56670;SDS011;42545;50.054;8.306;2023-09-30T06:42:29;5.90;;;3.72;;
56670;SDS011;42545;50.054;8.306;2023-09-30T06:44:56;5.03;;;3.60;;
56670;SDS011;42545;50.054;8.306;2023-09-30T06:47:22;5.88;;;3.83;;
56670;SDS011;42545;50.054;8.306;2023-09-30T06:49:50;4.75;;;3.15;;
56670;SDS011;42545;50.054;8.306;2023-09-30T06:52:17;5.43;;;3.20;;
56670;SDS011;42545;50.054;8.306;2023-09-30T06:54:45;4.40;;;2.92;;
56670;SDS011;42545;50.054;8.306;2023-09-30T06:57:11;4.47;;;3.20;;
56670;SDS011;42545;50.054;8.306;2023-09-30T06:59:38;4.07;;;2.85;;
56670;SDS011;42545;50.054;8.306;2023-09-30T07:02:04;3.90;;;2.90;;
56670;SDS011;42545;50.054;8.306;2023-09-30T07:04:31;6.45;;;4.05;;
56670;SDS011;42545;50.054;8.306;2023-09-30T07:06:59;6.20;;;3.50;;
56670;SDS011;42545;50.054;8.306;2023-09-30T07:09:25;6.28;;;3.70;;
56670;SDS011;42545;50.054;8.306;2023-09-30T07:11:52;5.10;;;3.40;;
56670;SDS011;42545;50.054;8.306;2023-09-30T07:14:19;4.82;;;2.90;;
56670;SDS011;42545;50.054;8.306;2023-09-30T07:16:45;4.85;;;3.30;;
56670;SDS011;42545;50.054;8.306;2023-09-30T07:19:12;3.95;;;3.13;;
56670;SDS011;42545;50.054;8.306;2023-09-30T07:21:39;4.28;;;3.20;;
56670;SDS011;42545;50.054;8.306;2023-09-30T07:24:07;4.10;;;3.05;;
56670;SDS011;42545;50.054;8.306;2023-09-30T07:26:34;3.38;;;2.50;;
56670;SDS011;42545;50.054;8.306;2023-09-30T07:29:01;2.60;;;2.22;;
56670;SDS011;42545;50.054;8.306;2023-09-30T07:31:29;3.15;;;2.30;;
56670;SDS011;42545;50.054;8.306;2023-09-30T07:34:00;4.18;;;2.90;;
56670;SDS011;42545;50.054;8.306;2023-09-30T07:36:26;3.95;;;2.80;;
56670;SDS011;42545;50.054;8.306;2023-09-30T07:38:53;5.85;;;2.83;;
56670;SDS011;42545;50.054;8.306;2023-09-30T07:41:21;4.22;;;3.15;;
56670;SDS011;42545;50.054;8.306;2023-09-30T07:43:47;3.92;;;3.00;;
56670;SDS011;42545;50.054;8.306;2023-09-30T07:46:14;5.28;;;3.10;;
56670;SDS011;42545;50.054;8.306;2023-09-30T07:48:41;5.60;;;2.90;;
56670;SDS011;42545;50.054;8.306;2023-09-30T07:51:08;6.07;;;3.72;;
56670;SDS011;42545;50.054;8.306;2023-09-30T07:53:38;5.55;;;2.97;;
56670;SDS011;42545;50.054;8.306;2023-09-30T07:56:05;4.13;;;3.10;;
56670;SDS011;42545;50.054;8.306;2023-09-30T07:58:33;4.75;;;2.53;;
56670;SDS011;42545;50.054;8.306;2023-09-30T08:00:59;3.05;;;2.10;;
56670;SDS011;42545;50.054;8.306;2023-09-30T08:03:26;3.30;;;2.30;;
56670;SDS011;42545;50.054;8.306;2023-09-30T08:05:53;3.45;;;2.13;;
56670;SDS011;42545;50.054;8.306;2023-09-30T08:08:19;5.18;;;2.25;;
56670;SDS011;42545;50.054;8.306;2023-09-30T08:10:47;2.78;;;2.10;;
56670;SDS011;42545;50.054;8.306;2023-09-30T08:13:13;2.85;;;2.17;;
56670;SDS011;42545;50.054;8.306;2023-09-30T08:15:41;3.72;;;2.08;;
56670;SDS011;42545;50.054;8.306;2023-09-30T08:18:08;2.13;;;1.80;;
56670;SDS011;42545;50.054;8.306;2023-09-30T08:20:34;2.63;;;2.13;;
56670;SDS011;42545;50.054;8.306;2023-09-30T08:23:01;4.68;;;2.22;;
56670;SDS011;42545;50.054;8.306;2023-09-30T08:25:28;3.55;;;1.80;;
56670;SDS011;42545;50.054;8.306;2023-09-30T08:27:55;2.72;;;1.67;;
56670;SDS011;42545;50.054;8.306;2023-09-30T08:30:22;3.03;;;1.77;;
56670;SDS011;42545;50.054;8.306;2023-09-30T08:32:49;4.80;;;2.40;;
56670;SDS011;42545;50.054;8.306;2023-09-30T08:35:16;2.95;;;1.80;;
56670;SDS011;42545;50.054;8.306;2023-09-30T08:37:43;3.13;;;2.03;;
56670;SDS011;42545;50.054;8.306;2023-09-30T08:40:10;3.58;;;1.83;;
56670;SDS011;42545;50.054;8.306;2023-09-30T08:42:38;2.65;;;1.73;;
56670;SDS011;42545;50.054;8.306;2023-09-30T08:45:05;7.03;;;2.70;;
56670;SDS011;42545;50.054;8.306;2023-09-30T08:47:36;7.80;;;2.92;;
56670;SDS011;42545;50.054;8.306;2023-09-30T08:50:05;8.82;;;2.85;;
56670;SDS011;42545;50.054;8.306;2023-09-30T08:52:35;4.60;;;2.60;;
56670;SDS011;42545;50.054;8.306;2023-09-30T08:55:04;5.97;;;2.38;;
56670;SDS011;42545;50.054;8.306;2023-09-30T08:57:31;4.80;;;2.35;;
56670;SDS011;42545;50.054;8.306;2023-09-30T08:59:59;4.20;;;2.28;;
56670;SDS011;42545;50.054;8.306;2023-09-30T09:02:26;4.38;;;2.20;;
56670;SDS011;42545;50.054;8.306;2023-09-30T09:04:51;5.35;;;2.63;;
56670;SDS011;42545;50.054;8.306;2023-09-30T09:07:19;5.30;;;2.20;;
56670;SDS011;42545;50.054;8.306;2023-09-30T09:12:33;4.03;;;1.90;;
56670;SDS011;42545;50.054;8.306;2023-09-30T09:15:00;5.30;;;2.20;;
56670;SDS011;42545;50.054;8.306;2023-09-30T09:17:39;2.97;;;1.70;;
56670;SDS011;42545;50.054;8.306;2023-09-30T09:20:07;3.35;;;1.90;;
56670;SDS011;42545;50.054;8.306;2023-09-30T09:22:41;8.02;;;2.90;;
56670;SDS011;42545;50.054;8.306;2023-09-30T09:25:08;4.90;;;2.28;;
56670;SDS011;42545;50.054;8.306;2023-09-30T09:27:35;3.08;;;1.80;;
56670;SDS011;42545;50.054;8.306;2023-09-30T09:30:18;3.97;;;2.15;;
56670;SDS011;42545;50.054;8.306;2023-09-30T09:32:52;5.05;;;2.00;;
56670;SDS011;42545;50.054;8.306;2023-09-30T09:35:26;2.60;;;1.60;;
56670;SDS011;42545;50.054;8.306;2023-09-30T09:37:58;3.05;;;1.67;;
56670;SDS011;42545;50.054;8.306;2023-09-30T09:40:25;2.88;;;1.70;;
56670;SDS011;42545;50.054;8.306;2023-09-30T09:42:53;3.55;;;2.08;;
56670;SDS011;42545;50.054;8.306;2023-09-30T09:45:21;1.98;;;1.58;;
56670;SDS011;42545;50.054;8.306;2023-09-30T09:47:49;4.63;;;2.30;;
56670;SDS011;42545;50.054;8.306;2023-09-30T09:50:17;1.98;;;1.58;;
56670;SDS011;42545;50.054;8.306;2023-09-30T09:52:44;5.85;;;2.75;;
56670;SDS011;42545;50.054;8.306;2023-09-30T09:55:14;4.10;;;2.00;;
56670;SDS011;42545;50.054;8.306;2023-09-30T09:57:42;4.07;;;2.00;;
56670;SDS011;42545;50.054;8.306;2023-09-30T10:00:11;4.13;;;1.90;;
56670;SDS011;42545;50.054;8.306;2023-09-30T10:02:39;3.60;;;1.98;;
56670;SDS011;42545;50.054;8.306;2023-09-30T10:05:06;7.53;;;3.03;;
56670;SDS011;42545;50.054;8.306;2023-09-30T10:07:37;8.63;;;2.85;;
56670;SDS011;42545;50.054;8.306;2023-09-30T10:12:39;4.03;;;1.90;;
56670;SDS011;42545;50.054;8.306;2023-09-30T10:18:02;5.13;;;2.05;;
56670;SDS011;42545;50.054;8.306;2023-09-30T10:20:30;3.67;;;1.63;;
56670;SDS011;42545;50.054;8.306;2023-09-30T10:23:17;4.47;;;2.03;;
56670;SDS011;42545;50.054;8.306;2023-09-30T10:25:46;6.70;;;2.88;;
56670;SDS011;42545;50.054;8.306;2023-09-30T10:31:08;5.07;;;2.20;;
56670;SDS011;42545;50.054;8.306;2023-09-30T10:33:37;4.65;;;2.20;;
56670;SDS011;42545;50.054;8.306;2023-09-30T10:39:17;5.82;;;2.47;;
56670;SDS011;42545;50.054;8.306;2023-09-30T10:51:00;4.53;;;2.25;;
56670;SDS011;42545;50.054;8.306;2023-09-30T10:53:27;3.63;;;1.80;;
56670;SDS011;42545;50.054;8.306;2023-09-30T10:55:56;8.05;;;2.72;;
56670;SDS011;42545;50.054;8.306;2023-09-30T10:58:38;5.15;;;2.15;;
56670;SDS011;42545;50.054;8.306;2023-09-30T11:01:07;3.75;;;2.03;;
56670;SDS011;42545;50.054;8.306;2023-09-30T11:03:34;3.17;;;1.67;;
56670;SDS011;42545;50.054;8.306;2023-09-30T11:06:01;4.85;;;2.00;;
56670;SDS011;42545;50.054;8.306;2023-09-30T11:08:28;3.58;;;1.77;;
56670;SDS011;42545;50.054;8.306;2023-09-30T11:10:56;5.60;;;2.22;;
56670;SDS011;42545;50.054;8.306;2023-09-30T11:13:22;4.97;;;2.00;;
56670;SDS011;42545;50.054;8.306;2023-09-30T11:15:59;5.00;;;2.00;;
56670;SDS011;42545;50.054;8.306;2023-09-30T11:18:28;4.75;;;1.98;;
56670;SDS011;42545;50.054;8.306;2023-09-30T11:21:06;3.92;;;2.15;;
56670;SDS011;42545;50.054;8.306;2023-09-30T11:23:35;3.78;;;1.67;;
56670;SDS011;42545;50.054;8.306;2023-09-30T11:26:03;2.72;;;1.70;;
56670;SDS011;42545;50.054;8.306;2023-09-30T11:28:37;2.55;;;1.60;;
56670;SDS011;42545;50.054;8.306;2023-09-30T11:31:07;2.88;;;1.65;;
56670;SDS011;42545;50.054;8.306;2023-09-30T11:33:48;3.50;;;1.80;;
56670;SDS011;42545;50.054;8.306;2023-09-30T11:36:17;2.35;;;1.50;;
56670;SDS011;42545;50.054;8.306;2023-09-30T11:38:45;3.45;;;1.92;;
56670;SDS011;42545;50.054;8.306;2023-09-30T11:41:14;2.25;;;1.40;;
56670;SDS011;42545;50.054;8.306;2023-09-30T11:43:57;2.72;;;1.33;;
56670;SDS011;42545;50.054;8.306;2023-09-30T11:46:25;3.90;;;2.10;;
56670;SDS011;42545;50.054;8.306;2023-09-30T11:48:57;4.50;;;1.88;;
56670;SDS011;42545;50.054;8.306;2023-09-30T11:51:25;2.20;;;1.48;;
56670;SDS011;42545;50.054;8.306;2023-09-30T11:53:52;2.20;;;1.33;;
56670;SDS011;42545;50.054;8.306;2023-09-30T11:56:19;2.47;;;1.30;;
56670;SDS011;42545;50.054;8.306;2023-09-30T11:58:52;2.35;;;1.40;;
56670;SDS011;42545;50.054;8.306;2023-09-30T12:01:19;1.63;;;1.30;;
56670;SDS011;42545;50.054;8.306;2023-09-30T12:03:47;1.90;;;1.38;;
56670;SDS011;42545;50.054;8.306;2023-09-30T12:06:15;2.47;;;1.70;;
56670;SDS011;42545;50.054;8.306;2023-09-30T12:08:42;2.40;;;1.58;;
56670;SDS011;42545;50.054;8.306;2023-09-30T12:11:08;3.33;;;2.00;;
56670;SDS011;42545;50.054;8.306;2023-09-30T12:13:38;2.22;;;1.30;;
56670;SDS011;42545;50.054;8.306;2023-09-30T12:16:04;2.55;;;1.15;;
56670;SDS011;42545;50.054;8.306;2023-09-30T12:18:31;2.38;;;1.48;;
56670;SDS011;42545;50.054;8.306;2023-09-30T12:20:57;1.38;;;1.10;;
56670;SDS011;42545;50.054;8.306;2023-09-30T12:23:25;3.80;;;1.83;;
56670;SDS011;42545;50.054;8.306;2023-09-30T12:25:52;1.70;;;1.40;;
56670;SDS011;42545;50.054;8.306;2023-09-30T12:28:19;2.15;;;1.50;;
56670;SDS011;42545;50.054;8.306;2023-09-30T12:30:46;1.92;;;1.30;;
56670;SDS011;42545;50.054;8.306;2023-09-30T12:33:12;2.63;;;1.52;;
56670;SDS011;42545;50.054;8.306;2023-09-30T12:35:39;2.38;;;1.30;;
56670;SDS011;42545;50.054;8.306;2023-09-30T12:38:05;3.67;;;1.90;;
56670;SDS011;42545;50.054;8.306;2023-09-30T12:40:33;3.92;;;1.70;;
56670;SDS011;42545;50.054;8.306;2023-09-30T12:43:00;3.00;;;1.55;;
56670;SDS011;42545;50.054;8.306;2023-09-30T12:45:26;3.10;;;1.80;;
56670;SDS011;42545;50.054;8.306;2023-09-30T12:47:53;3.08;;;1.48;;
56670;SDS011;42545;50.054;8.306;2023-09-30T12:50:21;2.47;;;1.60;;
56670;SDS011;42545;50.054;8.306;2023-09-30T12:52:48;2.38;;;1.40;;
56670;SDS011;42545;50.054;8.306;2023-09-30T12:55:14;2.42;;;1.58;;
56670;SDS011;42545;50.054;8.306;2023-09-30T12:57:42;4.45;;;1.80;;
56670;SDS011;42545;50.054;8.306;2023-09-30T13:00:09;3.15;;;1.40;;
56670;SDS011;42545;50.054;8.306;2023-09-30T13:02:37;2.33;;;1.30;;
56670;SDS011;42545;50.054;8.306;2023-09-30T13:05:03;3.90;;;1.80;;
56670;SDS011;42545;50.054;8.306;2023-09-30T13:07:32;1.73;;;1.20;;
56670;SDS011;42545;50.054;8.306;2023-09-30T13:09:59;3.08;;;1.65;;
56670;SDS011;42545;50.054;8.306;2023-09-30T13:12:27;3.28;;;1.92;;
56670;SDS011;42545;50.054;8.306;2023-09-30T13:14:55;2.58;;;1.65;;
56670;SDS011;42545;50.054;8.306;2023-09-30T13:17:22;2.25;;;1.50;;
56670;SDS011;42545;50.054;8.306;2023-09-30T13:19:49;3.00;;;1.70;;
56670;SDS011;42545;50.054;8.306;2023-09-30T13:22:16;4.18;;;1.80;;
56670;SDS011;42545;50.054;8.306;2023-09-30T13:24:42;4.32;;;1.75;;
56670;SDS011;42545;50.054;8.306;2023-09-30T13:27:09;3.38;;;1.83;;
56670;SDS011;42545;50.054;8.306;2023-09-30T13:29:36;2.38;;;1.63;;
56670;SDS011;42545;50.054;8.306;2023-09-30T13:32:04;2.45;;;1.48;;
56670;SDS011;42545;50.054;8.306;2023-09-30T13:34:31;2.05;;;1.27;;
56670;SDS011;42545;50.054;8.306;2023-09-30T13:36:57;2.75;;;1.52;;
56670;SDS011;42545;50.054;8.306;2023-09-30T13:39:24;2.03;;;1.23;;
56670;SDS011;42545;50.054;8.306;2023-09-30T13:41:50;2.55;;;1.60;;
56670;SDS011;42545;50.054;8.306;2023-09-30T13:44:17;4.90;;;1.90;;
56670;SDS011;42545;50.054;8.306;2023-09-30T13:46:44;2.72;;;1.55;;
56670;SDS011;42545;50.054;8.306;2023-09-30T13:49:13;2.10;;;1.35;;
56670;SDS011;42545;50.054;8.306;2023-09-30T13:51:39;2.08;;;1.35;;
56670;SDS011;42545;50.054;8.306;2023-09-30T13:54:06;2.05;;;1.30;;
56670;SDS011;42545;50.054;8.306;2023-09-30T13:56:33;1.98;;;1.45;;
56670;SDS011;42545;50.054;8.306;2023-09-30T13:59:00;2.60;;;1.50;;
56670;SDS011;42545;50.054;8.306;2023-09-30T14:01:26;2.53;;;1.40;;
56670;SDS011;42545;50.054;8.306;2023-09-30T14:03:53;3.25;;;1.40;;
56670;SDS011;42545;50.054;8.306;2023-09-30T14:06:23;2.78;;;1.75;;
56670;SDS011;42545;50.054;8.306;2023-09-30T14:08:50;2.50;;;1.52;;
56670;SDS011;42545;50.054;8.306;2023-09-30T14:11:18;5.80;;;2.42;;
56670;SDS011;42545;50.054;8.306;2023-09-30T14:13:44;2.78;;;1.50;;
56670;SDS011;42545;50.054;8.306;2023-09-30T14:16:11;3.67;;;1.67;;
56670;SDS011;42545;50.054;8.306;2023-09-30T14:18:37;1.75;;;1.02;;
56670;SDS011;42545;50.054;8.306;2023-09-30T14:21:04;2.53;;;1.40;;
56670;SDS011;42545;50.054;8.306;2023-09-30T14:23:32;2.70;;;1.52;;
56670;SDS011;42545;50.054;8.306;2023-09-30T14:25:59;1.67;;;1.10;;
56670;SDS011;42545;50.054;8.306;2023-09-30T14:28:29;1.38;;;1.10;;
56670;SDS011;42545;50.054;8.306;2023-09-30T14:30:56;1.52;;;1.10;;
56670;SDS011;42545;50.054;8.306;2023-09-30T14:33:23;2.42;;;1.63;;
56670;SDS011;42545;50.054;8.306;2023-09-30T14:35:50;4.68;;;2.13;;
56670;SDS011;42545;50.054;8.306;2023-09-30T14:38:18;2.40;;;1.60;;
56670;SDS011;42545;50.054;8.306;2023-09-30T14:40:45;1.80;;;1.40;;
56670;SDS011;42545;50.054;8.306;2023-09-30T14:43:12;3.25;;;1.40;;
56670;SDS011;42545;50.054;8.306;2023-09-30T14:45:39;1.85;;;1.33;;
56670;SDS011;42545;50.054;8.306;2023-09-30T14:48:06;1.92;;;1.27;;
56670;SDS011;42545;50.054;8.306;2023-09-30T14:50:32;2.53;;;1.63;;
56670;SDS011;42545;50.054;8.306;2023-09-30T14:52:59;2.65;;;1.42;;
56670;SDS011;42545;50.054;8.306;2023-09-30T14:55:25;3.55;;;2.08;;
56670;SDS011;42545;50.054;8.306;2023-09-30T14:57:53;3.05;;;1.73;;
56670;SDS011;42545;50.054;8.306;2023-09-30T15:00:20;2.75;;;1.60;;
56670;SDS011;42545;50.054;8.306;2023-09-30T15:02:49;2.22;;;1.52;;
56670;SDS011;42545;50.054;8.306;2023-09-30T15:05:16;3.20;;;1.65;;
56670;SDS011;42545;50.054;8.306;2023-09-30T15:07:43;2.58;;;1.48;;
56670;SDS011;42545;50.054;8.306;2023-09-30T15:10:09;2.10;;;1.40;;
56670;SDS011;42545;50.054;8.306;2023-09-30T15:12:36;2.10;;;1.45;;
56670;SDS011;42545;50.054;8.306;2023-09-30T15:15:04;1.95;;;1.40;;
56670;SDS011;42545;50.054;8.306;2023-09-30T15:17:32;2.00;;;1.30;;
56670;SDS011;42545;50.054;8.306;2023-09-30T15:19:58;1.88;;;1.35;;